createdAt,value
2018-11-29T00:00:28.241Z,1.30
2018-11-29T00:02:56.049Z,1.20
2018-11-29T00:05:23.584Z,1.10
2018-11-29T00:07:51.144Z,1.10
2018-11-29T00:10:18.653Z,1.10
2018-11-29T00:12:46.088Z,1.10
2018-11-29T00:15:14.383Z,1.10
2018-11-29T00:17:41.836Z,1.10
2018-11-29T00:20:10.454Z,1.10
2018-11-29T00:22:37.861Z,1.00
2018-11-29T00:25:06.781Z,0.90
2018-11-29T00:27:34.209Z,0.90
2018-11-29T00:30:01.798Z,0.80
2018-11-29T00:32:29.221Z,0.90
2018-11-29T00:34:56.653Z,0.90
2018-11-29T00:37:24.054Z,0.90
2018-11-29T00:39:51.493Z,0.80
2018-11-29T00:42:18.913Z,0.90
2018-11-29T00:44:46.353Z,0.90
2018-11-29T00:47:13.761Z,0.80
2018-11-29T00:49:41.270Z,0.80
2018-11-29T00:52:08.677Z,0.80
2018-11-29T00:54:36.178Z,0.90
2018-11-29T00:57:04.046Z,0.80
2018-11-29T00:59:31.482Z,0.80
2018-11-29T01:01:59.911Z,0.90
2018-11-29T01:04:28.056Z,0.80
2018-11-29T01:06:56.577Z,0.90
2018-11-29T01:09:24.082Z,0.80
2018-11-29T01:11:51.565Z,0.80
2018-11-29T01:14:19.081Z,0.90
2018-11-29T01:16:46.569Z,1.00
2018-11-29T01:19:14.035Z,0.80
2018-11-29T01:21:41.437Z,0.90
2018-11-29T01:24:08.889Z,0.90
2018-11-29T01:26:36.313Z,0.80
2018-11-29T01:29:03.778Z,1.00
2018-11-29T01:31:31.190Z,1.00
2018-11-29T01:33:58.617Z,1.00
2018-11-29T01:36:26.077Z,1.00
2018-11-29T01:38:53.551Z,1.10
2018-11-29T01:41:20.966Z,1.10
2018-11-29T01:43:48.393Z,1.10
2018-11-29T01:46:15.827Z,1.00
2018-11-29T01:48:43.289Z,0.90
2018-11-29T01:51:10.749Z,0.90
2018-11-29T01:53:38.163Z,0.90
2018-11-29T01:56:06.564Z,0.90
2018-11-29T01:58:33.979Z,0.90
2018-11-29T02:01:01.416Z,0.80
2018-11-29T02:03:28.864Z,0.90
2018-11-29T02:05:56.308Z,0.90
2018-11-29T02:08:23.711Z,0.90
2018-11-29T02:10:51.494Z,0.90
2018-11-29T02:13:19.525Z,0.90
2018-11-29T02:15:46.989Z,1.00
2018-11-29T02:18:14.382Z,1.10
2018-11-29T02:20:41.803Z,1.10
2018-11-29T02:23:09.225Z,1.00
2018-11-29T02:25:36.680Z,0.90
2018-11-29T02:28:04.316Z,1.00
2018-11-29T02:30:31.758Z,0.90
2018-11-29T02:32:59.170Z,0.90
2018-11-29T02:35:26.565Z,1.00
2018-11-29T02:37:53.964Z,1.00
2018-11-29T02:40:21.378Z,0.90
2018-11-29T02:42:49.283Z,1.00
2018-11-29T02:45:20.982Z,1.10
2018-11-29T02:47:48.505Z,1.10
2018-11-29T02:50:15.962Z,1.10
2018-11-29T02:52:43.367Z,1.20
2018-11-29T02:55:11.538Z,1.30
2018-11-29T02:57:45.982Z,1.20
2018-11-29T03:00:16.506Z,1.20
2018-11-29T03:02:43.971Z,1.10
2018-11-29T03:05:11.500Z,1.20
2018-11-29T03:07:38.915Z,1.20
2018-11-29T03:10:08.613Z,1.20
2018-11-29T03:12:36.088Z,1.00
2018-11-29T03:15:03.945Z,1.20
2018-11-29T03:17:31.341Z,1.20
2018-11-29T03:19:58.780Z,1.20
2018-11-29T03:22:26.216Z,1.20
2018-11-29T03:24:53.644Z,1.30
2018-11-29T03:27:21.098Z,1.20
2018-11-29T03:29:48.609Z,1.20
2018-11-29T03:32:16.115Z,1.20
2018-11-29T03:34:43.700Z,1.30
2018-11-29T03:37:11.133Z,1.30
2018-11-29T03:39:38.567Z,1.20
2018-11-29T03:42:06.052Z,1.30
2018-11-29T03:44:33.551Z,1.30
2018-11-29T03:47:01.011Z,1.40
2018-11-29T03:49:28.518Z,1.20
2018-11-29T03:51:55.920Z,1.20
2018-11-29T03:54:23.390Z,1.20
2018-11-29T03:56:50.873Z,1.30
2018-11-29T03:59:18.274Z,1.30
2018-11-29T04:01:45.756Z,1.40
2018-11-29T04:04:13.212Z,1.40
2018-11-29T04:06:40.669Z,1.30
2018-11-29T04:09:09.918Z,1.20
2018-11-29T04:11:37.327Z,1.30
2018-11-29T04:14:05.316Z,1.40
2018-11-29T04:16:32.797Z,1.50
2018-11-29T04:19:01.266Z,1.50
2018-11-29T04:21:28.676Z,1.40
2018-11-29T04:23:56.140Z,1.40
2018-11-29T04:26:23.555Z,1.30
2018-11-29T04:28:50.985Z,1.40
2018-11-29T04:31:18.443Z,1.30
2018-11-29T04:33:45.890Z,1.30
2018-11-29T04:36:13.306Z,1.30
2018-11-29T04:38:40.735Z,1.30
2018-11-29T04:41:08.184Z,1.40
2018-11-29T04:43:35.591Z,1.40
2018-11-29T04:46:43.223Z,1.40
2018-11-29T04:49:10.661Z,1.30
2018-11-29T04:51:38.105Z,1.30
2018-11-29T04:54:06.451Z,1.40
2018-11-29T04:56:33.909Z,1.50
2018-11-29T04:59:01.401Z,1.50
2018-11-29T05:01:29.010Z,1.40
2018-11-29T05:03:56.497Z,1.40
2018-11-29T05:06:23.941Z,1.40
2018-11-29T05:08:51.564Z,1.50
2018-11-29T05:11:19.014Z,1.40
2018-11-29T05:13:46.447Z,1.50
2018-11-29T05:16:14.089Z,1.50
2018-11-29T05:18:41.516Z,1.40
2018-11-29T05:21:08.971Z,1.40
2018-11-29T05:23:36.448Z,1.40
2018-11-29T05:26:03.890Z,1.50
2018-11-29T05:28:31.372Z,1.50
2018-11-29T05:30:58.788Z,1.50
2018-11-29T05:33:26.181Z,1.50
2018-11-29T05:35:53.673Z,1.40
2018-11-29T05:38:21.068Z,1.40
2018-11-29T05:40:48.543Z,1.40
2018-11-29T05:43:16.016Z,1.30
2018-11-29T05:45:44.070Z,1.30
2018-11-29T05:48:11.488Z,1.50
2018-11-29T05:50:38.937Z,1.40
2018-11-29T05:53:06.386Z,1.40
2018-11-29T05:55:33.886Z,1.50
2018-11-29T05:58:01.378Z,1.50
2018-11-29T06:00:28.894Z,1.30
2018-11-29T06:02:56.446Z,1.40
2018-11-29T06:05:23.870Z,1.40
2018-11-29T06:07:51.316Z,1.40
2018-11-29T06:10:19.667Z,1.40
2018-11-29T06:12:47.837Z,1.30
2018-11-29T06:15:15.302Z,1.30
2018-11-29T06:17:42.813Z,1.40
2018-11-29T06:20:14.282Z,1.60
2018-11-29T06:22:41.698Z,1.50
2018-11-29T06:25:09.403Z,1.40
2018-11-29T06:27:36.891Z,1.40
2018-11-29T06:30:07.776Z,1.40
2018-11-29T06:32:35.208Z,1.40
2018-11-29T06:35:02.671Z,1.40
2018-11-29T06:37:30.167Z,1.40
2018-11-29T06:39:57.564Z,1.50
2018-11-29T06:42:25.045Z,1.50
2018-11-29T06:44:52.476Z,1.40
2018-11-29T06:47:19.935Z,1.40
2018-11-29T06:49:47.349Z,1.30
2018-11-29T06:52:14.890Z,1.50
2018-11-29T06:54:42.325Z,1.50
2018-11-29T06:57:09.830Z,1.60
2018-11-29T06:59:37.277Z,1.60
2018-11-29T07:02:04.958Z,1.60
2018-11-29T07:04:32.408Z,1.50
2018-11-29T07:06:59.866Z,1.70
2018-11-29T07:09:27.300Z,1.80
2018-11-29T07:11:54.748Z,1.60
2018-11-29T07:14:22.185Z,1.50
2018-11-29T07:16:49.618Z,1.60
2018-11-29T07:19:17.916Z,1.60
2018-11-29T07:21:49.530Z,1.70
2018-11-29T07:24:16.958Z,1.60
2018-11-29T07:26:44.959Z,1.50
2018-11-29T07:29:16.844Z,1.60
2018-11-29T07:31:39.901Z,1.70
2018-11-29T07:34:07.427Z,1.80
2018-11-29T07:36:34.878Z,1.70
2018-11-29T07:39:02.383Z,1.70
2018-11-29T07:41:29.829Z,1.70
2018-11-29T07:43:57.281Z,1.70
2018-11-29T07:46:24.702Z,1.70
2018-11-29T07:48:52.153Z,1.70
2018-11-29T07:51:19.715Z,1.70
2018-11-29T07:53:47.163Z,1.80
2018-11-29T07:56:14.559Z,1.90
2018-11-29T07:58:42.274Z,1.90
2018-11-29T08:01:09.734Z,1.80
2018-11-29T08:03:37.186Z,1.80
2018-11-29T08:06:05.569Z,1.90
2018-11-29T08:08:32.999Z,2.10
2018-11-29T08:11:00.437Z,2.00
2018-11-29T08:13:27.865Z,2.00
2018-11-29T08:15:55.244Z,1.90
2018-11-29T08:18:22.712Z,2.10
2018-11-29T08:20:50.133Z,2.20
2018-11-29T08:23:17.617Z,2.00
2018-11-29T08:25:45.043Z,2.00
2018-11-29T08:28:12.511Z,1.90
2018-11-29T08:30:40.006Z,1.90
2018-11-29T08:33:07.487Z,2.10
2018-11-29T08:35:34.932Z,2.00
2018-11-29T08:38:02.385Z,2.00
2018-11-29T08:40:29.793Z,2.00
2018-11-29T08:42:57.264Z,2.10
2018-11-29T08:45:24.705Z,2.20
2018-11-29T08:47:52.177Z,2.20
2018-11-29T08:50:20.818Z,2.30
2018-11-29T08:52:48.258Z,2.30
2018-11-29T08:55:19.213Z,2.20
2018-11-29T08:57:47.632Z,2.20
2018-11-29T09:00:16.208Z,2.30
2018-11-29T09:02:43.694Z,2.30
2018-11-29T09:05:11.938Z,2.30
2018-11-29T09:07:39.597Z,2.30
2018-11-29T09:10:09.461Z,2.20
2018-11-29T09:12:36.912Z,2.10
2018-11-29T09:15:05.599Z,2.00
2018-11-29T09:17:38.361Z,2.10
2018-11-29T09:20:18.952Z,2.10
2018-11-29T09:22:46.444Z,2.10
2018-11-29T09:25:15.017Z,2.00
2018-11-29T09:27:42.504Z,2.10
2018-11-29T09:30:12.924Z,2.20
2018-11-29T09:32:41.109Z,2.20
2018-11-29T09:35:08.681Z,2.20
2018-11-29T09:37:36.258Z,2.30
2018-11-29T09:40:04.672Z,2.40
2018-11-29T09:42:32.125Z,2.40
2018-11-29T09:44:59.561Z,2.40
2018-11-29T09:47:26.995Z,2.50
2018-11-29T09:49:54.433Z,2.60
2018-11-29T09:52:21.886Z,2.70
2018-11-29T09:54:49.339Z,2.60
2018-11-29T09:57:16.768Z,2.60
2018-11-29T09:59:44.284Z,2.60
2018-11-29T10:02:11.714Z,2.60
2018-11-29T10:04:39.137Z,2.60
2018-11-29T10:07:06.572Z,2.70
2018-11-29T10:09:34.030Z,2.80
2018-11-29T10:12:01.524Z,2.60
2018-11-29T10:14:28.949Z,2.70
2018-11-29T10:16:56.377Z,2.80
2018-11-29T10:19:23.804Z,2.90
2018-11-29T10:21:51.237Z,2.90
2018-11-29T10:24:18.680Z,2.90
2018-11-29T10:26:46.067Z,3.10
2018-11-29T10:29:13.509Z,3.10
2018-11-29T10:31:40.920Z,3.10
2018-11-29T10:34:08.390Z,3.10
2018-11-29T10:36:35.814Z,3.10
2018-11-29T10:39:04.391Z,3.10
2018-11-29T10:41:31.862Z,3.00
2018-11-29T10:43:59.301Z,3.10
2018-11-29T10:46:26.730Z,3.10
2018-11-29T10:48:54.162Z,3.20
2018-11-29T10:51:21.562Z,3.30
2018-11-29T10:53:48.995Z,3.30
2018-11-29T10:56:16.403Z,3.30
2018-11-29T10:58:43.860Z,3.30
2018-11-29T11:01:17.063Z,3.30
2018-11-29T11:03:44.537Z,3.20
2018-11-29T11:06:11.951Z,3.20
2018-11-29T11:08:39.397Z,3.20
2018-11-29T11:11:07.212Z,3.20
2018-11-29T11:13:35.981Z,3.30
2018-11-29T11:16:03.417Z,3.10
2018-11-29T11:18:30.881Z,2.90
2018-11-29T11:20:58.356Z,2.90
2018-11-29T11:23:25.791Z,3.00
2018-11-29T11:25:53.849Z,3.00
2018-11-29T11:28:21.321Z,3.10
2018-11-29T11:30:48.724Z,3.00
2018-11-29T11:33:16.194Z,3.10
2018-11-29T11:35:43.712Z,3.30
2018-11-29T11:38:11.131Z,3.50
2018-11-29T11:40:38.641Z,3.40
2018-11-29T11:43:06.677Z,3.50
2018-11-29T11:45:34.115Z,3.40
2018-11-29T11:48:03.381Z,3.30
2018-11-29T11:50:29.072Z,3.30
2018-11-29T11:52:56.471Z,3.50
2018-11-29T11:55:30.075Z,3.50
2018-11-29T11:57:54.255Z,3.50
2018-11-29T12:00:28.578Z,3.60
2018-11-29T12:03:00.210Z,3.70
2018-11-29T12:05:27.843Z,3.70
2018-11-29T12:07:55.242Z,3.70
2018-11-29T12:10:22.702Z,3.60
2018-11-29T12:12:50.121Z,3.70
2018-11-29T12:15:17.613Z,3.70
2018-11-29T12:17:45.861Z,3.80
2018-11-29T12:20:14.352Z,3.70
2018-11-29T12:22:41.808Z,3.80
2018-11-29T12:25:11.452Z,3.90
2018-11-29T12:27:38.931Z,3.80
2018-11-29T12:30:18.959Z,3.80
2018-11-29T12:32:46.431Z,3.90
2018-11-29T12:35:14.188Z,3.70
2018-11-29T12:37:41.741Z,3.70
2018-11-29T12:40:10.618Z,3.60
2018-11-29T12:42:38.050Z,3.80
2018-11-29T12:45:07.794Z,3.90
2018-11-29T12:47:35.277Z,3.80
2018-11-29T12:50:02.796Z,3.80
2018-11-29T12:52:30.262Z,3.80
2018-11-29T12:54:58.370Z,3.90
2018-11-29T12:57:25.784Z,3.80
2018-11-29T12:59:53.212Z,3.80
2018-11-29T13:02:20.621Z,3.80
2018-11-29T13:04:48.059Z,4.00
2018-11-29T13:07:15.466Z,4.00
2018-11-29T13:09:42.896Z,4.00
2018-11-29T13:12:10.294Z,3.90
2018-11-29T13:14:37.854Z,3.90
2018-11-29T13:17:05.292Z,3.90
2018-11-29T13:19:32.712Z,3.90
2018-11-29T13:22:00.225Z,3.80
2018-11-29T13:24:27.637Z,3.80
2018-11-29T13:26:55.066Z,4.10
2018-11-29T13:29:22.510Z,4.00
2018-11-29T13:31:49.963Z,4.00
2018-11-29T13:34:17.374Z,3.90
2018-11-29T13:36:45.413Z,3.90
2018-11-29T13:39:12.859Z,4.00
2018-11-29T13:41:40.315Z,4.00
2018-11-29T13:44:07.725Z,4.10
2018-11-29T13:46:35.149Z,3.90
2018-11-29T13:49:02.561Z,3.90
2018-11-29T13:51:29.997Z,3.90
2018-11-29T13:53:57.450Z,4.00
2018-11-29T13:56:24.896Z,4.00
2018-11-29T13:58:52.363Z,3.90
2018-11-29T14:01:19.940Z,3.90
2018-11-29T14:03:47.373Z,4.10
2018-11-29T14:06:14.838Z,4.00
2018-11-29T14:08:42.297Z,4.10
2018-11-29T14:11:09.768Z,4.00
2018-11-29T14:13:37.172Z,3.90
2018-11-29T14:16:04.862Z,4.00
2018-11-29T14:18:32.289Z,4.00
2018-11-29T14:20:59.745Z,4.10
2018-11-29T14:23:27.453Z,4.10
2018-11-29T14:25:54.902Z,4.10
2018-11-29T14:28:22.385Z,4.00
2018-11-29T14:30:49.815Z,4.00
2018-11-29T14:33:17.369Z,4.00
2018-11-29T14:35:44.893Z,3.90
2018-11-29T14:38:12.438Z,3.90
2018-11-29T14:40:39.854Z,3.90
2018-11-29T14:43:07.373Z,3.90
2018-11-29T14:45:34.783Z,4.00
2018-11-29T14:48:02.270Z,4.00
2018-11-29T14:50:34.987Z,4.00
2018-11-29T14:53:02.491Z,3.90
2018-11-29T14:55:30.054Z,3.90
2018-11-29T14:57:57.614Z,3.90
2018-11-29T15:00:25.011Z,3.90
2018-11-29T15:02:52.833Z,4.00
2018-11-29T15:05:24.568Z,4.10
2018-11-29T15:07:51.985Z,4.10
2018-11-29T15:10:19.496Z,4.10
2018-11-29T15:12:46.986Z,4.20
2018-11-29T15:15:14.412Z,4.20
2018-11-29T15:17:43.305Z,4.10
2018-11-29T15:20:15.353Z,3.90
2018-11-29T15:22:42.970Z,4.00
2018-11-29T15:25:10.412Z,4.00
2018-11-29T15:27:37.883Z,3.90
2018-11-29T15:30:09.473Z,4.00
2018-11-29T15:32:36.925Z,3.90
2018-11-29T15:35:05.254Z,4.00
2018-11-29T15:37:32.828Z,4.00
2018-11-29T15:40:00.353Z,3.90
2018-11-29T15:42:27.813Z,3.90
2018-11-29T15:44:55.309Z,3.90
2018-11-29T15:47:22.764Z,3.90
2018-11-29T15:49:50.230Z,4.00
2018-11-29T15:52:17.662Z,4.00
2018-11-29T15:54:45.120Z,4.00
2018-11-29T15:57:12.682Z,3.80
2018-11-29T15:59:40.114Z,3.80
2018-11-29T16:02:07.566Z,3.90
2018-11-29T16:04:34.968Z,4.00
2018-11-29T16:07:02.409Z,3.90
2018-11-29T16:09:29.789Z,4.00
2018-11-29T16:11:57.330Z,3.90
2018-11-29T16:14:24.777Z,3.90
2018-11-29T16:16:52.235Z,3.90
2018-11-29T16:19:19.658Z,3.90
2018-11-29T16:21:47.116Z,3.90
2018-11-29T16:24:14.531Z,4.00
2018-11-29T16:26:42.002Z,3.90
2018-11-29T16:29:09.407Z,3.80
2018-11-29T16:31:36.924Z,3.90
2018-11-29T16:34:04.619Z,4.00
2018-11-29T16:36:32.025Z,4.00
2018-11-29T16:38:59.521Z,4.10
2018-11-29T16:41:27.001Z,4.10
2018-11-29T16:43:54.521Z,4.00
2018-11-29T16:46:21.920Z,4.10
2018-11-29T16:48:49.367Z,4.20
2018-11-29T16:51:16.789Z,4.10
2018-11-29T16:53:44.287Z,4.10
2018-11-29T16:56:11.732Z,4.00
2018-11-29T16:58:39.140Z,4.00
2018-11-29T17:01:08.811Z,4.00
2018-11-29T17:03:34.299Z,4.10
2018-11-29T17:06:01.727Z,4.20
2018-11-29T17:08:29.201Z,4.00
2018-11-29T17:10:56.621Z,4.00
2018-11-29T17:13:24.097Z,3.90
2018-11-29T17:15:51.536Z,4.00
2018-11-29T17:18:19.016Z,4.00
2018-11-29T17:20:46.509Z,4.10
2018-11-29T17:23:14.018Z,4.10
2018-11-29T17:25:41.668Z,4.10
2018-11-29T17:28:09.196Z,4.10
2018-11-29T17:30:37.189Z,4.20
2018-11-29T17:33:05.470Z,4.10
2018-11-29T17:38:06.119Z,4.20
2018-11-29T17:40:33.983Z,4.30
2018-11-29T17:43:01.519Z,4.40
2018-11-29T17:45:29.709Z,4.20
2018-11-29T17:47:58.442Z,4.20
2018-11-29T17:50:30.223Z,4.20
2018-11-29T17:52:57.661Z,4.40
2018-11-29T17:55:25.803Z,4.30
2018-11-29T17:57:53.793Z,4.30
2018-11-29T18:00:23.525Z,4.30
2018-11-29T18:02:51.074Z,4.30
2018-11-29T18:05:18.488Z,4.40
2018-11-29T18:07:45.945Z,4.40
2018-11-29T18:10:22.273Z,4.30
2018-11-29T18:12:52.915Z,4.20
2018-11-29T18:15:22.030Z,4.20
2018-11-29T18:17:49.503Z,4.20
2018-11-29T18:20:17.033Z,4.40
2018-11-29T18:22:44.446Z,4.30
2018-11-29T18:25:13.027Z,4.40
2018-11-29T18:27:42.150Z,4.40
2018-11-29T18:30:11.033Z,4.30
2018-11-29T18:32:39.446Z,4.30
2018-11-29T18:35:07.635Z,4.30
2018-11-29T18:37:35.025Z,4.40
2018-11-29T18:40:02.505Z,4.30
2018-11-29T18:42:29.957Z,4.30
2018-11-29T18:44:57.361Z,4.30
2018-11-29T18:47:24.822Z,4.20
2018-11-29T18:49:52.257Z,4.20
2018-11-29T18:52:19.710Z,4.30
2018-11-29T18:54:47.148Z,4.20
2018-11-29T18:57:14.545Z,4.20
2018-11-29T18:59:42.281Z,4.00
2018-11-29T19:02:09.712Z,4.20
2018-11-29T19:04:37.299Z,4.20
2018-11-29T19:07:05.483Z,4.20
2018-11-29T19:09:32.933Z,4.20
2018-11-29T19:12:00.470Z,4.20
2018-11-29T19:14:27.973Z,4.20
2018-11-29T19:16:55.425Z,4.10
2018-11-29T19:19:22.833Z,4.30
2018-11-29T19:21:50.421Z,4.20
2018-11-29T19:24:17.875Z,4.20
2018-11-29T19:26:45.362Z,4.30
2018-11-29T19:29:12.749Z,4.20
2018-11-29T19:31:40.193Z,4.20
2018-11-29T19:34:07.636Z,4.30
2018-11-29T19:36:35.089Z,4.20
2018-11-29T19:39:02.722Z,4.10
2018-11-29T19:41:30.154Z,4.10
2018-11-29T19:43:57.919Z,4.00
2018-11-29T19:46:25.249Z,4.20
2018-11-29T19:48:52.811Z,4.30
2018-11-29T19:51:20.211Z,4.20
2018-11-29T19:53:47.690Z,4.10
2018-11-29T19:56:15.432Z,4.10
2018-11-29T19:58:42.845Z,4.10
2018-11-29T20:01:10.304Z,3.90
2018-11-29T20:03:37.743Z,3.70
2018-11-29T20:06:05.475Z,3.70
2018-11-29T20:08:33.832Z,3.60
2018-11-29T20:11:01.475Z,3.50
2018-11-29T20:13:28.893Z,3.50
2018-11-29T20:15:56.348Z,3.40
2018-11-29T20:18:23.822Z,3.30
2018-11-29T20:20:51.225Z,3.20
2018-11-29T20:23:18.679Z,3.10
2018-11-29T20:25:46.893Z,3.20
2018-11-29T20:28:14.400Z,3.10
2018-11-29T20:30:41.808Z,3.20
2018-11-29T20:33:09.273Z,3.30
2018-11-29T20:35:36.696Z,3.40
2018-11-29T20:38:04.561Z,3.40
2018-11-29T20:40:33.477Z,3.20
2018-11-29T20:43:01.372Z,3.30
2018-11-29T20:45:34.791Z,3.30
2018-11-29T20:48:08.919Z,3.40
2018-11-29T20:50:36.341Z,3.50
2018-11-29T20:53:04.227Z,3.60
2018-11-29T20:55:31.692Z,3.60
2018-11-29T20:57:59.245Z,3.60
2018-11-29T21:00:26.656Z,3.70
2018-11-29T21:02:54.184Z,3.80
2018-11-29T21:05:22.581Z,3.70
2018-11-29T21:07:53.474Z,3.80
2018-11-29T21:10:23.025Z,3.60
2018-11-29T21:12:50.480Z,3.70
2018-11-29T21:15:18.487Z,3.70
2018-11-29T21:17:46.248Z,3.80
2018-11-29T21:20:14.827Z,3.70
2018-11-29T21:22:43.365Z,3.60
2018-11-29T21:25:12.518Z,3.60
2018-11-29T21:27:40.166Z,3.60
2018-11-29T21:30:11.888Z,3.70
2018-11-29T21:32:39.397Z,3.80
2018-11-29T21:35:07.867Z,3.70
2018-11-29T21:37:35.304Z,3.80
2018-11-29T21:40:04.138Z,3.70
2018-11-29T21:42:31.593Z,3.70
2018-11-29T21:44:59.075Z,3.70
2018-11-29T21:47:26.605Z,3.70
2018-11-29T21:49:54.047Z,3.80
2018-11-29T21:52:21.708Z,3.80
2018-11-29T21:54:49.488Z,3.90
2018-11-29T21:57:16.945Z,3.70
2018-11-29T21:59:44.317Z,3.60
2018-11-29T22:02:11.805Z,3.60
2018-11-29T22:04:39.371Z,3.70
2018-11-29T22:07:06.840Z,3.60
2018-11-29T22:09:34.468Z,3.70
2018-11-29T22:12:02.350Z,3.70
2018-11-29T22:14:29.876Z,3.70
2018-11-29T22:16:57.310Z,3.60
2018-11-29T22:19:24.784Z,3.60
2018-11-29T22:21:52.188Z,3.60
2018-11-29T22:24:19.634Z,3.80
2018-11-29T22:26:47.024Z,3.80
2018-11-29T22:29:14.440Z,3.70
2018-11-29T22:31:41.850Z,3.70
2018-11-29T22:34:09.400Z,3.60
2018-11-29T22:36:36.833Z,3.90
2018-11-29T22:39:07.184Z,3.80
2018-11-29T22:41:34.583Z,3.70
2018-11-29T22:44:02.062Z,3.60
2018-11-29T22:46:29.443Z,3.80
2018-11-29T22:48:56.909Z,3.70
2018-11-29T22:51:24.312Z,3.80
2018-11-29T22:53:51.793Z,3.90
2018-11-29T22:56:19.200Z,3.70
2018-11-29T22:58:46.634Z,3.70
2018-11-29T23:01:20.075Z,3.90
2018-11-29T23:03:47.514Z,4.00
2018-11-29T23:06:15.031Z,4.00
2018-11-29T23:08:42.482Z,4.00
2018-11-29T23:11:09.905Z,4.00
2018-11-29T23:13:37.388Z,4.00
2018-11-29T23:16:05.479Z,4.00
2018-11-29T23:18:32.919Z,3.90
2018-11-29T23:21:00.351Z,3.70
2018-11-29T23:23:27.774Z,3.70
2018-11-29T23:25:55.239Z,3.90
2018-11-29T23:28:22.805Z,3.90
2018-11-29T23:30:50.226Z,3.80
2018-11-29T23:33:17.655Z,3.90
2018-11-29T23:35:45.121Z,3.90
2018-11-29T23:38:12.550Z,4.00
2018-11-29T23:40:40.037Z,4.00
2018-11-29T23:43:07.480Z,3.90
2018-11-29T23:45:34.927Z,4.10
2018-11-29T23:48:02.335Z,4.00
2018-11-29T23:50:29.836Z,3.90
2018-11-29T23:52:57.289Z,4.00
2018-11-29T23:55:24.753Z,4.10
2018-11-29T23:57:52.236Z,4.00
